Laconia, New Hampshire
Current Conditions -  °F | °C
As of 1:15 PM on Friday 28 Nov 2014 (Local Time) from KLCI Reporting Station
Scattered Clouds Scattered Clouds  
Wind Chill: 22°   Ceiling: Unl
Heat Index: 30°   Visibility: 10mi
Dew Point: 18°   Wind: 9mph
Humidity: 60%   Direction: 280°W
Pressure: 30.01"   Gusts: NA
Location:  43.56°N, 71.48°W
Report Text: KLCI 281815Z AUTO 28008KT 10SM SCT038 M01/M08 A3001 RMK AO1
Loading
Personal Weather Stations






























Interactive Weather Map New forecast layout! Learn more

10-Day Weather Forecast

Advertisements
Track Severe Weather on mobile